sensor_id;sensor_type;location;lat;lon;timestamp;pressure;altitude;pressure_sealevel;temperature;humidity
21185;BME280;18176;49.502;11.754;2024-01-15T00:02:19;95564.91;;;1.86;55.25
21185;BME280;18176;49.502;11.754;2024-01-15T00:06:40;95562.91;;;1.81;55.39
21185;BME280;18176;49.502;11.754;2024-01-15T00:11:01;95575.41;;;2.10;54.51
21185;BME280;18176;49.502;11.754;2024-01-15T00:15:22;95560.19;;;1.63;56.03
21185;BME280;18176;49.502;11.754;2024-01-15T00:19:45;95568.69;;;1.39;56.17
21185;BME280;18176;49.502;11.754;2024-01-15T00:24:06;95580.50;;;1.61;56.35
21185;BME280;18176;49.502;11.754;2024-01-15T00:28:26;95561.50;;;2.17;55.08
21185;BME280;18176;49.502;11.754;2024-01-15T00:32:47;95573.13;;;2.21;54.89
21185;BME280;18176;49.502;11.754;2024-01-15T00:37:10;95564.78;;;2.05;55.02
21185;BME280;18176;49.502;11.754;2024-01-15T00:41:31;95537.97;;;1.85;55.21
21185;BME280;18176;49.502;11.754;2024-01-15T00:45:52;95530.47;;;2.51;53.74
21185;BME280;18176;49.502;11.754;2024-01-15T00:50:12;95558.63;;;2.25;54.15
21185;BME280;18176;49.502;11.754;2024-01-15T00:54:35;95559.50;;;2.68;53.66
21185;BME280;18176;49.502;11.754;2024-01-15T00:58:58;95565.88;;;2.23;54.77
21185;BME280;18176;49.502;11.754;2024-01-15T01:03:18;95573.28;;;2.57;54.04
21185;BME280;18176;49.502;11.754;2024-01-15T01:07:39;95534.44;;;2.36;54.31
21185;BME280;18176;49.502;11.754;2024-01-15T01:12:03;95553.22;;;2.51;53.69
21185;BME280;18176;49.502;11.754;2024-01-15T01:16:23;95576.94;;;2.49;53.62
21185;BME280;18176;49.502;11.754;2024-01-15T01:20:44;95520.63;;;1.97;54.51
21185;BME280;18176;49.502;11.754;2024-01-15T01:25:06;95551.47;;;2.13;54.79
21185;BME280;18176;49.502;11.754;2024-01-15T01:29:29;95480.03;;;2.01;54.34
21185;BME280;18176;49.502;11.754;2024-01-15T01:33:50;95563.44;;;2.28;54.66
21185;BME280;18176;49.502;11.754;2024-01-15T01:38:11;95575.31;;;2.55;54.22
21185;BME280;18176;49.502;11.754;2024-01-15T01:42:31;95557.03;;;2.24;54.64
21185;BME280;18176;49.502;11.754;2024-01-15T01:46:55;95540.59;;;2.17;54.80
21185;BME280;18176;49.502;11.754;2024-01-15T01:51:16;95552.88;;;2.41;54.93
21185;BME280;18176;49.502;11.754;2024-01-15T01:55:39;95553.97;;;2.58;55.07
21185;BME280;18176;49.502;11.754;2024-01-15T02:00:00;95551.28;;;2.89;54.07
21185;BME280;18176;49.502;11.754;2024-01-15T02:04:31;95529.16;;;2.67;53.76
21185;BME280;18176;49.502;11.754;2024-01-15T02:08:55;95519.91;;;2.40;54.83
21185;BME280;18176;49.502;11.754;2024-01-15T02:13:16;95554.69;;;2.16;56.11
21185;BME280;18176;49.502;11.754;2024-01-15T02:17:59;95519.44;;;2.25;55.48
21185;BME280;18176;49.502;11.754;2024-01-15T02:22:23;95574.94;;;2.76;54.74
21185;BME280;18176;49.502;11.754;2024-01-15T02:26:46;95572.47;;;2.32;55.50
21185;BME280;18176;49.502;11.754;2024-01-15T02:31:07;95533.25;;;2.32;55.65
21185;BME280;18176;49.502;11.754;2024-01-15T02:35:28;95563.50;;;2.46;55.79
21185;BME280;18176;49.502;11.754;2024-01-15T02:39:48;95569.84;;;2.56;55.15
21185;BME280;18176;49.502;11.754;2024-01-15T02:44:11;95564.63;;;2.81;54.90
21185;BME280;18176;49.502;11.754;2024-01-15T02:48:32;95571.53;;;2.51;55.19
21185;BME280;18176;49.502;11.754;2024-01-15T02:52:53;95539.66;;;2.85;54.17
21185;BME280;18176;49.502;11.754;2024-01-15T02:57:13;95571.88;;;2.79;54.77
21185;BME280;18176;49.502;11.754;2024-01-15T03:01:37;95570.19;;;2.42;55.90
21185;BME280;18176;49.502;11.754;2024-01-15T03:05:58;95567.06;;;2.58;55.39
21185;BME280;18176;49.502;11.754;2024-01-15T03:10:18;95553.13;;;2.64;55.13
21185;BME280;18176;49.502;11.754;2024-01-15T03:14:39;95560.13;;;2.88;55.10
21185;BME280;18176;49.502;11.754;2024-01-15T03:19:02;95556.09;;;3.10;54.66
21185;BME280;18176;49.502;11.754;2024-01-15T03:23:23;95564.41;;;3.43;53.76
21185;BME280;18176;49.502;11.754;2024-01-15T03:27:43;95540.13;;;3.54;53.20
21185;BME280;18176;49.502;11.754;2024-01-15T03:32:04;95545.16;;;3.38;53.41
21185;BME280;18176;49.502;11.754;2024-01-15T03:36:27;95526.84;;;2.77;55.54
21185;BME280;18176;49.502;11.754;2024-01-15T03:40:48;95547.50;;;3.76;53.59
21185;BME280;18176;49.502;11.754;2024-01-15T03:45:09;95542.13;;;3.52;53.45
21185;BME280;18176;49.502;11.754;2024-01-15T03:49:30;95504.34;;;3.30;53.32
21185;BME280;18176;49.502;11.754;2024-01-15T03:53:53;95539.59;;;3.28;54.06
21185;BME280;18176;49.502;11.754;2024-01-15T03:58:13;95537.34;;;3.49;53.60
21185;BME280;18176;49.502;11.754;2024-01-15T04:02:34;95542.34;;;3.69;53.19
21185;BME280;18176;49.502;11.754;2024-01-15T04:06:55;95505.47;;;3.52;53.06
21185;BME280;18176;49.502;11.754;2024-01-15T04:11:18;95533.09;;;3.67;53.23
21185;BME280;18176;49.502;11.754;2024-01-15T04:15:40;95534.09;;;3.84;52.90
21185;BME280;18176;49.502;11.754;2024-01-15T04:20:00;95526.72;;;3.92;52.93
21185;BME280;18176;49.502;11.754;2024-01-15T04:24:21;95517.81;;;4.23;52.39
21185;BME280;18176;49.502;11.754;2024-01-15T04:28:44;95519.59;;;4.11;52.59
21185;BME280;18176;49.502;11.754;2024-01-15T04:33:05;95513.91;;;3.73;53.52
21185;BME280;18176;49.502;11.754;2024-01-15T04:37:25;95514.56;;;3.68;53.97
21185;BME280;18176;49.502;11.754;2024-01-15T04:41:46;95506.25;;;4.01;53.30
21185;BME280;18176;49.502;11.754;2024-01-15T04:46:09;95517.31;;;4.03;53.30
21185;BME280;18176;49.502;11.754;2024-01-15T04:50:30;95519.31;;;3.41;55.16
21185;BME280;18176;49.502;11.754;2024-01-15T04:54:50;95513.16;;;4.25;53.49
21185;BME280;18176;49.502;11.754;2024-01-15T04:59:12;95490.84;;;3.93;53.77
21185;BME280;18176;49.502;11.754;2024-01-15T05:03:35;95502.13;;;3.64;54.82
21185;BME280;18176;49.502;11.754;2024-01-15T05:07:57;95489.63;;;3.66;54.98
21185;BME280;18176;49.502;11.754;2024-01-15T05:12:18;95484.69;;;3.99;54.35
21185;BME280;18176;49.502;11.754;2024-01-15T05:16:38;95497.94;;;4.04;54.69
21185;BME280;18176;49.502;11.754;2024-01-15T05:21:02;95489.06;;;4.05;54.70
21185;BME280;18176;49.502;11.754;2024-01-15T05:25:23;95481.34;;;4.33;54.17
21185;BME280;18176;49.502;11.754;2024-01-15T05:29:43;95480.34;;;4.46;53.78
21185;BME280;18176;49.502;11.754;2024-01-15T05:34:04;95481.47;;;4.26;54.38
21185;BME280;18176;49.502;11.754;2024-01-15T05:38:27;95485.59;;;3.93;55.27
21185;BME280;18176;49.502;11.754;2024-01-15T05:42:48;95475.31;;;4.21;55.07
21185;BME280;18176;49.502;11.754;2024-01-15T05:47:09;95479.91;;;4.60;53.99
21185;BME280;18176;49.502;11.754;2024-01-15T05:51:29;95452.94;;;3.95;54.79
21185;BME280;18176;49.502;11.754;2024-01-15T05:55:53;95485.53;;;4.11;55.36
21185;BME280;18176;49.502;11.754;2024-01-15T06:00:15;95486.69;;;4.15;55.26
21185;BME280;18176;49.502;11.754;2024-01-15T06:04:36;95482.16;;;3.81;56.34
21185;BME280;18176;49.502;11.754;2024-01-15T06:08:57;95482.00;;;4.17;55.63
21185;BME280;18176;49.502;11.754;2024-01-15T06:13:25;95474.53;;;3.79;56.46
21185;BME280;18176;49.502;11.754;2024-01-15T06:17:46;95479.34;;;4.05;55.95
21185;BME280;18176;49.502;11.754;2024-01-15T06:22:07;95488.66;;;4.31;55.21
21185;BME280;18176;49.502;11.754;2024-01-15T06:26:28;95491.72;;;4.16;55.45
21185;BME280;18176;49.502;11.754;2024-01-15T06:30:51;95481.31;;;4.10;55.57
21185;BME280;18176;49.502;11.754;2024-01-15T06:35:11;95477.41;;;4.01;56.14
21185;BME280;18176;49.502;11.754;2024-01-15T06:39:32;95471.28;;;4.07;56.16
21185;BME280;18176;49.502;11.754;2024-01-15T06:43:53;95403.25;;;3.89;55.90
21185;BME280;18176;49.502;11.754;2024-01-15T06:48:16;95482.25;;;4.27;56.01
21185;BME280;18176;49.502;11.754;2024-01-15T06:52:37;95481.81;;;4.30;56.08
21185;BME280;18176;49.502;11.754;2024-01-15T06:56:58;95478.56;;;3.93;57.58
21185;BME280;18176;49.502;11.754;2024-01-15T07:01:19;95457.63;;;4.05;56.70
21185;BME280;18176;49.502;11.754;2024-01-15T07:05:42;95471.81;;;4.50;55.63
21185;BME280;18176;49.502;11.754;2024-01-15T07:10:05;95488.28;;;4.16;56.40
21185;BME280;18176;49.502;11.754;2024-01-15T07:14:25;95462.25;;;4.44;55.46
21185;BME280;18176;49.502;11.754;2024-01-15T07:18:46;95468.38;;;4.38;55.17
21185;BME280;18176;49.502;11.754;2024-01-15T07:23:10;95456.75;;;4.34;54.89
21185;BME280;18176;49.502;11.754;2024-01-15T07:27:30;95485.03;;;5.02;53.71
21185;BME280;18176;49.502;11.754;2024-01-15T07:31:51;95464.59;;;5.04;53.29
21185;BME280;18176;49.502;11.754;2024-01-15T07:36:12;95492.44;;;4.70;54.28
21185;BME280;18176;49.502;11.754;2024-01-15T07:40:36;95490.59;;;4.47;55.38
21185;BME280;18176;49.502;11.754;2024-01-15T07:44:57;95459.59;;;4.21;55.35
21185;BME280;18176;49.502;11.754;2024-01-15T07:49:17;95492.78;;;4.96;54.17
21185;BME280;18176;49.502;11.754;2024-01-15T07:53:38;95511.28;;;4.78;54.81
21185;BME280;18176;49.502;11.754;2024-01-15T07:58:01;95494.63;;;4.84;55.35
21185;BME280;18176;49.502;11.754;2024-01-15T08:02:32;95501.69;;;4.72;56.92
21185;BME280;18176;49.502;11.754;2024-01-15T08:06:54;95497.25;;;4.84;56.43
21185;BME280;18176;49.502;11.754;2024-01-15T08:11:16;95477.91;;;5.14;55.88
21185;BME280;18176;49.502;11.754;2024-01-15T08:15:40;95499.75;;;5.54;55.30
21185;BME280;18176;49.502;11.754;2024-01-15T08:20:02;95500.94;;;5.35;55.60
21185;BME280;18176;49.502;11.754;2024-01-15T08:24:24;95472.22;;;5.17;55.46
21185;BME280;18176;49.502;11.754;2024-01-15T08:28:47;95474.44;;;4.73;57.25
21185;BME280;18176;49.502;11.754;2024-01-15T08:33:11;95483.22;;;4.67;58.00
21185;BME280;18176;49.502;11.754;2024-01-15T08:37:39;95498.72;;;4.57;57.35
21185;BME280;18176;49.502;11.754;2024-01-15T08:41:59;95482.72;;;4.24;57.73
21185;BME280;18176;49.502;11.754;2024-01-15T08:46:20;95487.53;;;4.50;57.52
21185;BME280;18176;49.502;11.754;2024-01-15T08:50:44;95481.84;;;5.00;56.33
21185;BME280;18176;49.502;11.754;2024-01-15T08:55:08;95487.75;;;5.07;55.97
21185;BME280;18176;49.502;11.754;2024-01-15T08:59:30;95476.13;;;5.03;56.13
21185;BME280;18176;49.502;11.754;2024-01-15T09:03:51;95481.53;;;5.36;55.57
21185;BME280;18176;49.502;11.754;2024-01-15T09:08:14;95490.53;;;5.40;55.77
21185;BME280;18176;49.502;11.754;2024-01-15T09:12:35;95490.59;;;5.68;55.05
21185;BME280;18176;49.502;11.754;2024-01-15T09:16:56;95495.44;;;5.88;54.95
21185;BME280;18176;49.502;11.754;2024-01-15T09:21:17;95493.16;;;5.40;55.85
21185;BME280;18176;49.502;11.754;2024-01-15T09:25:40;95504.13;;;5.88;55.04
21185;BME280;18176;49.502;11.754;2024-01-15T09:30:02;95492.63;;;6.22;53.67
21185;BME280;18176;49.502;11.754;2024-01-15T09:34:24;95492.31;;;5.62;54.28
21185;BME280;18176;49.502;11.754;2024-01-15T09:38:45;95487.91;;;5.80;54.25
21185;BME280;18176;49.502;11.754;2024-01-15T09:43:11;95484.50;;;6.07;53.60
21185;BME280;18176;49.502;11.754;2024-01-15T09:47:33;95500.88;;;5.58;54.78
21185;BME280;18176;49.502;11.754;2024-01-15T09:51:59;95497.66;;;6.07;54.02
21185;BME280;18176;49.502;11.754;2024-01-15T09:56:28;95496.97;;;6.62;52.94
21185;BME280;18176;49.502;11.754;2024-01-15T10:00:52;95487.16;;;6.90;52.04
21185;BME280;18176;49.502;11.754;2024-01-15T10:05:14;95477.47;;;6.79;52.46
21185;BME280;18176;49.502;11.754;2024-01-15T10:09:35;95484.06;;;6.44;52.89
21185;BME280;18176;49.502;11.754;2024-01-15T10:13:56;95482.16;;;6.56;52.87
21185;BME280;18176;49.502;11.754;2024-01-15T10:18:20;95484.53;;;6.41;53.88
21185;BME280;18176;49.502;11.754;2024-01-15T10:22:42;95465.16;;;6.47;53.64
21185;BME280;18176;49.502;11.754;2024-01-15T10:27:08;95462.31;;;6.03;54.22
21185;BME280;18176;49.502;11.754;2024-01-15T10:31:29;95452.22;;;6.62;53.59
21185;BME280;18176;49.502;11.754;2024-01-15T10:35:55;95448.47;;;6.24;53.55
21185;BME280;18176;49.502;11.754;2024-01-15T10:40:16;95433.63;;;5.85;54.37
21185;BME280;18176;49.502;11.754;2024-01-15T10:44:36;95412.47;;;6.08;53.88
21185;BME280;18176;49.502;11.754;2024-01-15T10:48:57;95443.06;;;5.98;54.50
21185;BME280;18176;49.502;11.754;2024-01-15T10:53:24;95429.53;;;6.22;53.37
21185;BME280;18176;49.502;11.754;2024-01-15T10:57:48;95409.50;;;5.60;54.71
21185;BME280;18176;49.502;11.754;2024-01-15T11:02:11;95421.38;;;5.91;54.77
21185;BME280;18176;49.502;11.754;2024-01-15T11:06:43;95419.56;;;6.24;54.28
21185;BME280;18176;49.502;11.754;2024-01-15T11:11:10;95398.88;;;5.83;54.44
21185;BME280;18176;49.502;11.754;2024-01-15T11:15:32;95413.28;;;6.25;54.29
21185;BME280;18176;49.502;11.754;2024-01-15T11:19:53;95407.84;;;6.49;53.18
21185;BME280;18176;49.502;11.754;2024-01-15T11:24:37;95413.91;;;6.32;53.93
21185;BME280;18176;49.502;11.754;2024-01-15T11:29:03;95413.81;;;6.27;53.40
21185;BME280;18176;49.502;11.754;2024-01-15T11:33:34;95405.75;;;5.84;54.83
21185;BME280;18176;49.502;11.754;2024-01-15T11:37:59;95398.16;;;6.71;52.93
21185;BME280;18176;49.502;11.754;2024-01-15T11:42:21;95393.97;;;6.53;53.02
21185;BME280;18176;49.502;11.754;2024-01-15T11:46:56;95392.47;;;6.07;53.68
21185;BME280;18176;49.502;11.754;2024-01-15T11:51:18;95380.78;;;5.98;54.09
21185;BME280;18176;49.502;11.754;2024-01-15T11:55:44;95387.91;;;5.86;54.22
21185;BME280;18176;49.502;11.754;2024-01-15T12:00:13;95389.63;;;6.64;52.42
21185;BME280;18176;49.502;11.754;2024-01-15T12:04:36;95378.06;;;6.65;52.77
21185;BME280;18176;49.502;11.754;2024-01-15T12:09:06;95374.38;;;7.04;51.96
21185;BME280;18176;49.502;11.754;2024-01-15T12:13:27;95377.31;;;6.31;53.28
21185;BME280;18176;49.502;11.754;2024-01-15T12:17:48;95398.03;;;6.44;53.82
21185;BME280;18176;49.502;11.754;2024-01-15T12:22:11;95391.09;;;6.38;53.77
21185;BME280;18176;49.502;11.754;2024-01-15T12:26:33;95372.13;;;6.19;54.34
21185;BME280;18176;49.502;11.754;2024-01-15T12:30:56;95365.28;;;5.68;54.92
21185;BME280;18176;49.502;11.754;2024-01-15T12:35:18;95383.91;;;5.84;55.79
21185;BME280;18176;49.502;11.754;2024-01-15T12:39:43;95340.97;;;5.78;55.33
21185;BME280;18176;49.502;11.754;2024-01-15T12:44:04;95360.50;;;6.15;55.31
21185;BME280;18176;49.502;11.754;2024-01-15T12:48:26;95359.44;;;6.50;54.67
21185;BME280;18176;49.502;11.754;2024-01-15T12:52:49;95360.75;;;5.36;56.43
21185;BME280;18176;49.502;11.754;2024-01-15T12:57:12;95366.91;;;5.86;55.98
21185;BME280;18176;49.502;11.754;2024-01-15T13:01:34;95338.06;;;5.91;54.98
21185;BME280;18176;49.502;11.754;2024-01-15T13:05:55;95374.84;;;6.24;53.87
21185;BME280;18176;49.502;11.754;2024-01-15T13:10:16;95370.41;;;6.08;54.63
21185;BME280;18176;49.502;11.754;2024-01-15T13:14:39;95340.06;;;5.84;54.87
21185;BME280;18176;49.502;11.754;2024-01-15T13:19:00;95359.88;;;6.08;54.74
21185;BME280;18176;49.502;11.754;2024-01-15T13:23:22;95330.91;;;5.87;54.10
21185;BME280;18176;49.502;11.754;2024-01-15T13:27:42;95368.19;;;5.72;54.88
21185;BME280;18176;49.502;11.754;2024-01-15T13:32:06;95370.09;;;5.88;54.37
21185;BME280;18176;49.502;11.754;2024-01-15T13:36:27;95382.94;;;6.56;53.47
21185;BME280;18176;49.502;11.754;2024-01-15T13:40:49;95371.19;;;6.42;54.32
21185;BME280;18176;49.502;11.754;2024-01-15T13:45:10;95371.75;;;6.11;55.15
21185;BME280;18176;49.502;11.754;2024-01-15T13:49:36;95363.47;;;5.86;56.44
21185;BME280;18176;49.502;11.754;2024-01-15T13:53:58;95373.44;;;6.17;55.64
21185;BME280;18176;49.502;11.754;2024-01-15T13:58:21;95364.63;;;5.78;57.22
21185;BME280;18176;49.502;11.754;2024-01-15T14:02:43;95367.06;;;5.96;57.08
21185;BME280;18176;49.502;11.754;2024-01-15T14:07:06;95351.13;;;5.86;57.04
21185;BME280;18176;49.502;11.754;2024-01-15T14:11:27;95359.69;;;6.31;56.63
21185;BME280;18176;49.502;11.754;2024-01-15T14:15:48;95350.34;;;6.19;56.51
21185;BME280;18176;49.502;11.754;2024-01-15T14:20:10;95371.00;;;6.49;55.57
21185;BME280;18176;49.502;11.754;2024-01-15T14:24:33;95367.13;;;6.01;56.81
21185;BME280;18176;49.502;11.754;2024-01-15T14:28:54;95355.47;;;5.64;57.22
21185;BME280;18176;49.502;11.754;2024-01-15T14:33:14;95388.06;;;5.80;57.70
21185;BME280;18176;49.502;11.754;2024-01-15T14:37:36;95376.63;;;6.19;56.92
21185;BME280;18176;49.502;11.754;2024-01-15T14:41:59;95364.63;;;5.78;57.80
21185;BME280;18176;49.502;11.754;2024-01-15T14:46:19;95347.75;;;5.74;57.66
21185;BME280;18176;49.502;11.754;2024-01-15T14:50:40;95351.44;;;5.90;57.16
21185;BME280;18176;49.502;11.754;2024-01-15T14:55:01;95357.78;;;5.77;56.72
21185;BME280;18176;49.502;11.754;2024-01-15T14:59:26;95374.88;;;5.63;57.25
21185;BME280;18176;49.502;11.754;2024-01-15T15:03:47;95385.69;;;6.11;56.57
21185;BME280;18176;49.502;11.754;2024-01-15T15:08:08;95402.25;;;5.95;56.13
21185;BME280;18176;49.502;11.754;2024-01-15T15:12:30;95400.66;;;5.94;56.19
21185;BME280;18176;49.502;11.754;2024-01-15T15:16:53;95401.41;;;5.78;56.44
21185;BME280;18176;49.502;11.754;2024-01-15T15:21:14;95406.97;;;5.65;56.42
21185;BME280;18176;49.502;11.754;2024-01-15T15:25:35;95415.97;;;5.69;56.20
21185;BME280;18176;49.502;11.754;2024-01-15T15:29:56;95421.63;;;6.06;55.64
21185;BME280;18176;49.502;11.754;2024-01-15T15:34:19;95418.28;;;5.65;56.97
21185;BME280;18176;49.502;11.754;2024-01-15T15:38:40;95425.09;;;5.50;56.89
21185;BME280;18176;49.502;11.754;2024-01-15T15:43:01;95439.16;;;5.72;56.75
21185;BME280;18176;49.502;11.754;2024-01-15T15:47:22;95426.47;;;5.13;57.97
21185;BME280;18176;49.502;11.754;2024-01-15T15:51:45;95447.44;;;5.64;57.61
21185;BME280;18176;49.502;11.754;2024-01-15T15:56:06;95441.31;;;5.47;57.51
21185;BME280;18176;49.502;11.754;2024-01-15T16:00:27;95427.25;;;5.25;57.94
21185;BME280;18176;49.502;11.754;2024-01-15T16:04:48;95425.63;;;4.61;58.91
21185;BME280;18176;49.502;11.754;2024-01-15T16:09:12;95451.81;;;4.95;58.81
21185;BME280;18176;49.502;11.754;2024-01-15T16:13:34;95461.00;;;5.33;58.04
21185;BME280;18176;49.502;11.754;2024-01-15T16:17:58;95461.19;;;4.68;59.59
21185;BME280;18176;49.502;11.754;2024-01-15T16:22:40;95462.13;;;5.37;58.23
21185;BME280;18176;49.502;11.754;2024-01-15T16:27:25;95467.78;;;5.17;58.78
21185;BME280;18176;49.502;11.754;2024-01-15T16:31:47;95460.50;;;4.50;60.22
21185;BME280;18176;49.502;11.754;2024-01-15T16:36:09;95501.34;;;4.69;60.35
21185;BME280;18176;49.502;11.754;2024-01-15T16:40:31;95485.94;;;4.95;58.85
21185;BME280;18176;49.502;11.754;2024-01-15T16:44:58;95506.91;;;5.19;58.82
21185;BME280;18176;49.502;11.754;2024-01-15T16:49:21;95463.94;;;4.73;59.18
21185;BME280;18176;49.502;11.754;2024-01-15T16:53:43;95514.22;;;4.70;59.52
21185;BME280;18176;49.502;11.754;2024-01-15T16:58:05;95514.22;;;5.17;58.59
21185;BME280;18176;49.502;11.754;2024-01-15T17:02:30;95523.47;;;4.96;58.73
21185;BME280;18176;49.502;11.754;2024-01-15T17:06:52;95524.75;;;5.68;57.13
21185;BME280;18176;49.502;11.754;2024-01-15T17:11:15;95526.75;;;5.38;56.96
21185;BME280;18176;49.502;11.754;2024-01-15T17:15:37;95545.94;;;5.27;57.63
21185;BME280;18176;49.502;11.754;2024-01-15T17:20:04;95540.25;;;5.07;58.16
21185;BME280;18176;49.502;11.754;2024-01-15T17:24:27;95536.94;;;5.11;57.54
21185;BME280;18176;49.502;11.754;2024-01-15T17:28:50;95549.69;;;5.42;56.46
21185;BME280;18176;49.502;11.754;2024-01-15T17:33:13;95576.50;;;5.56;56.82
21185;BME280;18176;49.502;11.754;2024-01-15T17:37:38;95585.09;;;5.05;57.72
21185;BME280;18176;49.502;11.754;2024-01-15T17:42:01;95575.84;;;5.03;58.49
21185;BME280;18176;49.502;11.754;2024-01-15T17:46:23;95569.34;;;5.05;58.46
21185;BME280;18176;49.502;11.754;2024-01-15T17:50:47;95590.81;;;4.49;59.73
21185;BME280;18176;49.502;11.754;2024-01-15T17:55:13;95590.81;;;5.14;58.12
21185;BME280;18176;49.502;11.754;2024-01-15T17:59:34;95600.03;;;5.05;58.20
21185;BME280;18176;49.502;11.754;2024-01-15T18:03:54;95600.28;;;5.49;56.99
21185;BME280;18176;49.502;11.754;2024-01-15T18:08:16;95588.97;;;5.03;57.16
21185;BME280;18176;49.502;11.754;2024-01-15T18:12:39;95578.84;;;4.94;56.76
21185;BME280;18176;49.502;11.754;2024-01-15T18:17:01;95588.97;;;5.37;56.30
21185;BME280;18176;49.502;11.754;2024-01-15T18:21:22;95572.78;;;5.40;55.97
21185;BME280;18176;49.502;11.754;2024-01-15T18:25:43;95614.78;;;5.06;56.75
21185;BME280;18176;49.502;11.754;2024-01-15T18:30:09;95608.56;;;5.69;55.45
21185;BME280;18176;49.502;11.754;2024-01-15T18:34:31;95623.13;;;5.26;55.96
21185;BME280;18176;49.502;11.754;2024-01-15T18:38:53;95624.47;;;5.17;56.08
21185;BME280;18176;49.502;11.754;2024-01-15T18:43:16;95594.69;;;5.11;55.95
21185;BME280;18176;49.502;11.754;2024-01-15T18:47:40;95626.31;;;5.51;55.83
21185;BME280;18176;49.502;11.754;2024-01-15T18:52:04;95637.50;;;5.58;55.33
21185;BME280;18176;49.502;11.754;2024-01-15T18:56:25;95621.72;;;5.58;54.64
21185;BME280;18176;49.502;11.754;2024-01-15T19:00:46;95646.63;;;5.67;55.34
21185;BME280;18176;49.502;11.754;2024-01-15T19:05:11;95638.19;;;5.42;55.10
21185;BME280;18176;49.502;11.754;2024-01-15T19:09:32;95632.00;;;5.02;55.95
21185;BME280;18176;49.502;11.754;2024-01-15T19:13:53;95642.47;;;4.78;55.96
21185;BME280;18176;49.502;11.754;2024-01-15T19:18:15;95648.69;;;5.65;54.71
21185;BME280;18176;49.502;11.754;2024-01-15T19:22:41;95668.69;;;5.54;53.94
21185;BME280;18176;49.502;11.754;2024-01-15T19:27:03;95644.44;;;5.76;53.78
21185;BME280;18176;49.502;11.754;2024-01-15T19:31:23;95655.75;;;5.30;54.73
21185;BME280;18176;49.502;11.754;2024-01-15T19:35:47;95674.50;;;5.45;54.41
21185;BME280;18176;49.502;11.754;2024-01-15T19:40:11;95686.50;;;4.76;56.15
21185;BME280;18176;49.502;11.754;2024-01-15T19:44:33;95679.81;;;4.92;55.67
21185;BME280;18176;49.502;11.754;2024-01-15T19:48:54;95701.66;;;5.39;54.54
21185;BME280;18176;49.502;11.754;2024-01-15T19:53:16;95704.09;;;5.40;54.90
21185;BME280;18176;49.502;11.754;2024-01-15T19:57:40;95694.13;;;5.31;55.06
21185;BME280;18176;49.502;11.754;2024-01-15T20:02:01;95689.34;;;5.51;54.31
21185;BME280;18176;49.502;11.754;2024-01-15T20:06:25;95730.84;;;5.08;54.83
21185;BME280;18176;49.502;11.754;2024-01-15T20:10:46;95730.50;;;5.80;53.26
21185;BME280;18176;49.502;11.754;2024-01-15T20:15:10;95731.13;;;5.18;54.67
21185;BME280;18176;49.502;11.754;2024-01-15T20:19:32;95744.19;;;5.47;54.88
21185;BME280;18176;49.502;11.754;2024-01-15T20:23:54;95743.94;;;5.49;54.05
21185;BME280;18176;49.502;11.754;2024-01-15T20:28:20;95711.97;;;4.87;54.94
21185;BME280;18176;49.502;11.754;2024-01-15T20:32:44;95735.69;;;5.22;54.79
21185;BME280;18176;49.502;11.754;2024-01-15T20:37:05;95723.84;;;5.43;53.99
21185;BME280;18176;49.502;11.754;2024-01-15T20:41:26;95777.47;;;5.24;54.65
21185;BME280;18176;49.502;11.754;2024-01-15T20:45:46;95756.06;;;4.67;54.72
21185;BME280;18176;49.502;11.754;2024-01-15T20:50:10;95764.13;;;5.37;53.83
21185;BME280;18176;49.502;11.754;2024-01-15T20:54:32;95790.66;;;5.06;54.38
21185;BME280;18176;49.502;11.754;2024-01-15T20:58:53;95786.06;;;5.95;52.76
21185;BME280;18176;49.502;11.754;2024-01-15T21:03:15;95787.00;;;5.07;53.89
21185;BME280;18176;49.502;11.754;2024-01-15T21:07:39;95808.53;;;5.27;54.36
21185;BME280;18176;49.502;11.754;2024-01-15T21:12:04;95818.75;;;5.46;53.74
21185;BME280;18176;49.502;11.754;2024-01-15T21:16:28;95791.38;;;5.13;54.34
21185;BME280;18176;49.502;11.754;2024-01-15T21:20:49;95785.06;;;5.55;53.34
21185;BME280;18176;49.502;11.754;2024-01-15T21:25:13;95798.97;;;5.44;54.32
21185;BME280;18176;49.502;11.754;2024-01-15T21:29:33;95816.00;;;5.94;53.55
21185;BME280;18176;49.502;11.754;2024-01-15T21:33:54;95788.03;;;5.47;53.53
21185;BME280;18176;49.502;11.754;2024-01-15T21:38:17;95829.16;;;5.53;53.90
21185;BME280;18176;49.502;11.754;2024-01-15T21:42:41;95802.97;;;5.46;54.15
21185;BME280;18176;49.502;11.754;2024-01-15T21:47:02;95832.88;;;5.34;54.90
21185;BME280;18176;49.502;11.754;2024-01-15T21:51:23;95861.44;;;5.12;56.11
21185;BME280;18176;49.502;11.754;2024-01-15T21:55:43;95818.00;;;4.50;56.68
21185;BME280;18176;49.502;11.754;2024-01-15T22:00:09;95865.31;;;5.10;56.02
21185;BME280;18176;49.502;11.754;2024-01-15T22:04:31;95867.75;;;5.41;54.41
21185;BME280;18176;49.502;11.754;2024-01-15T22:08:53;95880.19;;;5.16;54.66
21185;BME280;18176;49.502;11.754;2024-01-15T22:13:14;95878.88;;;5.25;54.92
21185;BME280;18176;49.502;11.754;2024-01-15T22:17:37;95776.53;;;4.88;54.32
21185;BME280;18176;49.502;11.754;2024-01-15T22:21:59;95888.13;;;5.57;54.92
21185;BME280;18176;49.502;11.754;2024-01-15T22:26:19;95888.00;;;5.04;56.66
21185;BME280;18176;49.502;11.754;2024-01-15T22:30:40;95851.56;;;4.78;56.12
21185;BME280;18176;49.502;11.754;2024-01-15T22:35:05;95899.25;;;5.23;56.44
21185;BME280;18176;49.502;11.754;2024-01-15T22:39:26;95905.13;;;5.25;56.03
21185;BME280;18176;49.502;11.754;2024-01-15T22:43:47;95897.34;;;5.30;55.70
21185;BME280;18176;49.502;11.754;2024-01-15T22:48:08;95907.31;;;5.10;55.23
21185;BME280;18176;49.502;11.754;2024-01-15T22:52:31;95904.03;;;5.44;54.58
21185;BME280;18176;49.502;11.754;2024-01-15T22:56:52;95891.41;;;5.05;54.75
21185;BME280;18176;49.502;11.754;2024-01-15T23:01:13;95902.34;;;5.20;54.44
21185;BME280;18176;49.502;11.754;2024-01-15T23:05:33;95912.41;;;5.23;54.43
21185;BME280;18176;49.502;11.754;2024-01-15T23:09:57;95926.94;;;4.89;54.96